Terminal Aerodrome Forecast
Issued by NWS

Home | Current Version | Previous Version | Text Only | Print | Product List | Glossary On
Versions: 1 2 3 4 5 6 7 8 9 10 11 12 13 14 15 16 17 18 19 20
000
FTUS43 KLSX 231700
TAFUIN
TAF
KUIN 231727Z 2318/2418 24008KT P6SM BKN250
     FM240300 32006KT P6SM SCT015 BKN120
     FM240900 35010KT P6SM SCT008 OVC015
     FM241400 33011KT 4SM -SN BR OVC008=

USA.gov is the U.S. government's official web portal to all federal, state and local government web resources and services.